Time;durP1;ratioP1;P1;durP2;ratioP2;P2;SDS_P1;SDS_P2;PMS_P1;PMS_P2;Temp;Humidity;BMP_temperature;BMP_pressure;BME280_temperature;BME280_humidity;BME280_pressure;Samples;Min_cycle;Max_cycle;Signal;HPM_P1;HPM_P2
2023/06/28 00:01:01;;;;;;;7.53;3.07;;;17.60;99.90;;;;;;5035812;28;20504;-81
2023/06/28 00:03:27;;;;;;;7.43;2.87;;;17.60;99.90;;;;;;5034337;28;20057;-81
2023/06/28 00:05:53;;;;;;;9.00;3.17;;;17.50;99.90;;;;;;5018456;28;20397;-81
2023/06/28 00:08:19;;;;;;;9.13;3.00;;;17.50;99.90;;;;;;5017530;28;20064;-81
2023/06/28 00:10:45;;;;;;;10.37;3.67;;;17.50;99.90;;;;;;5033006;28;20060;-81
2023/06/28 00:13:10;;;;;;;8.70;3.10;;;17.50;99.90;;;;;;5033157;28;20055;-81
2023/06/28 00:15:36;;;;;;;9.40;3.37;;;17.40;99.90;;;;;;5034317;28;20080;-81
2023/06/28 00:18:02;;;;;;;9.30;3.10;;;17.40;99.90;;;;;;5034351;28;20128;-81
2023/06/28 00:20:28;;;;;;;7.83;3.13;;;17.40;99.90;;;;;;5033382;28;20096;-81
2023/06/28 00:22:55;;;;;;;8.90;2.83;;;17.30;99.90;;;;;;5032613;28;20580;-82
2023/06/28 00:25:21;;;;;;;7.50;2.80;;;17.40;99.90;;;;;;5034200;28;20053;-82
2023/06/28 00:27:47;;;;;;;9.37;2.73;;;17.30;99.90;;;;;;5033824;28;20383;-83
2023/06/28 00:30:13;;;;;;;6.97;2.97;;;17.30;99.90;;;;;;5033244;28;20107;-83
2023/06/28 00:32:38;;;;;;;7.60;3.03;;;17.30;99.90;;;;;;5016098;28;20045;-83
2023/06/28 00:35:05;;;;;;;7.70;2.80;;;17.30;99.90;;;;;;5034183;28;20536;-83
2023/06/28 00:37:31;;;;;;;6.80;2.83;;;17.30;99.90;;;;;;5016742;28;20082;-83
2023/06/28 00:39:57;;;;;;;12.27;3.23;;;17.30;99.90;;;;;;5033055;28;20048;-83
2023/06/28 00:42:23;;;;;;;8.80;3.67;;;17.30;99.90;;;;;;5032764;28;20052;-82
2023/06/28 00:44:49;;;;;;;8.03;2.90;;;17.20;99.90;;;;;;5032549;28;20414;-83
2023/06/28 00:47:15;;;;;;;9.30;3.40;;;17.30;99.90;;;;;;5033046;28;20053;-83
2023/06/28 00:49:42;;;;;;;8.50;3.60;;;17.20;99.90;;;;;;5032634;28;20053;-83
2023/06/28 00:52:10;;;;;;;8.00;3.20;;;17.30;99.90;;;;;;5033819;28;20045;-83
2023/06/28 00:54:37;;;;;;;9.13;3.17;;;17.20;99.90;;;;;;5033601;28;20049;-82
2023/06/28 00:57:03;;;;;;;8.77;3.30;;;17.20;99.90;;;;;;5032682;28;20148;-82
2023/06/28 00:59:30;;;;;;;7.40;3.10;;;17.20;99.90;;;;;;5033793;28;20049;-82
2023/06/28 01:01:56;;;;;;;7.53;3.33;;;17.20;99.90;;;;;;5032183;28;20085;-83
2023/06/28 01:04:22;;;;;;;8.53;3.43;;;17.20;99.90;;;;;;5032679;28;20041;-83
2023/06/28 01:06:53;;;;;;;6.50;2.93;;;17.20;99.90;;;;;;5032249;28;20132;-82
2023/06/28 01:09:21;;;;;;;7.63;3.00;;;17.20;99.90;;;;;;4992712;28;1152058;-83
2023/06/28 01:11:52;;;;;;;7.93;3.10;;;17.10;99.90;;;;;;5033149;28;20060;-82
2023/06/28 01:14:18;;;;;;;9.30;3.20;;;17.10;99.90;;;;;;5033605;28;20041;-82
2023/06/28 01:16:49;;;;;;;7.43;3.03;;;17.10;99.90;;;;;;5033071;28;20053;-82
2023/06/28 01:19:16;;;;;;;7.53;3.30;;;17.10;99.90;;;;;;5017152;28;20057;-82
2023/06/28 01:21:45;;;;;;;7.93;3.40;;;17.00;99.90;;;;;;5016725;28;20053;-82
2023/06/28 01:24:12;;;;;;;9.50;3.83;;;17.00;99.90;;;;;;5033341;28;20061;-82
2023/06/28 01:26:39;;;;;;;9.07;3.90;;;17.10;99.90;;;;;;5034227;28;20120;-82
2023/06/28 01:29:06;;;;;;;9.57;3.53;;;17.00;99.90;;;;;;5034243;28;20049;-82
2023/06/28 01:31:32;;;;;;;10.30;4.17;;;17.00;99.90;;;;;;5034280;28;20056;-83
2023/06/28 01:33:58;;;;;;;8.23;3.53;;;17.00;99.90;;;;;;5032764;28;20053;-82
2023/06/28 01:36:24;;;;;;;10.77;4.13;;;17.00;99.90;;;;;;5034085;28;20046;-83
2023/06/28 01:38:51;;;;;;;8.63;4.10;;;17.00;99.90;;;;;;5032759;28;20116;-82
2023/06/28 01:41:17;;;;;;;12.37;4.20;;;17.00;99.90;;;;;;5033973;28;20057;-82
2023/06/28 01:43:43;;;;;;;8.70;3.50;;;17.00;99.90;;;;;;5031732;28;20049;-82
2023/06/28 01:46:10;;;;;;;9.67;4.00;;;17.00;99.90;;;;;;5034401;28;20045;-82
2023/06/28 01:48:35;;;;;;;9.60;4.17;;;17.00;99.90;;;;;;5032984;28;20183;-82
2023/06/28 01:51:01;;;;;;;9.67;4.30;;;17.00;99.90;;;;;;5032363;28;20115;-82
2023/06/28 01:53:27;;;;;;;11.57;4.27;;;17.00;99.90;;;;;;5034074;28;20155;-83
2023/06/28 01:55:53;;;;;;;8.63;3.60;;;17.00;99.90;;;;;;5032181;28;20041;-83
2023/06/28 01:58:19;;;;;;;9.07;3.50;;;17.00;99.90;;;;;;5016360;28;20041;-82
2023/06/28 02:00:44;;;;;;;9.63;3.90;;;17.00;99.90;;;;;;5015935;28;20054;-82
2023/06/28 02:03:10;;;;;;;9.63;4.00;;;17.00;99.90;;;;;;5032349;28;20440;-83
2023/06/28 02:05:36;;;;;;;12.07;3.80;;;17.00;99.90;;;;;;5033461;28;20052;-83
2023/06/28 02:08:02;;;;;;;8.90;3.40;;;17.00;99.90;;;;;;5015562;28;20064;-82
2023/06/28 02:10:28;;;;;;;9.00;3.83;;;17.00;99.90;;;;;;5032615;28;20088;-82
2023/06/28 02:12:54;;;;;;;9.57;4.00;;;17.00;99.90;;;;;;5033335;28;20052;-82
2023/06/28 02:15:21;;;;;;;8.73;3.73;;;17.00;99.90;;;;;;5032303;28;20512;-82
2023/06/28 02:17:47;;;;;;;8.23;3.93;;;17.00;99.90;;;;;;5031752;28;20050;-82
2023/06/28 02:20:14;;;;;;;7.87;2.90;;;16.90;99.90;;;;;;5015587;28;20580;-82
2023/06/28 02:22:40;;;;;;;8.47;3.13;;;16.90;99.90;;;;;;5033064;28;20481;-81
2023/06/28 02:25:06;;;;;;;10.90;3.10;;;16.90;99.90;;;;;;5032956;28;20132;-81
2023/06/28 02:27:32;;;;;;;8.47;2.90;;;16.90;99.90;;;;;;5032399;28;20069;-81
2023/06/28 02:29:58;;;;;;;7.47;3.10;;;16.90;99.90;;;;;;5015380;28;20102;-80
2023/06/28 02:32:25;;;;;;;7.17;2.40;;;16.90;99.90;;;;;;5032997;28;20124;-81
2023/06/28 02:34:50;;;;;;;8.80;2.60;;;16.90;99.90;;;;;;5032570;28;20045;-80
2023/06/28 02:37:16;;;;;;;8.10;2.70;;;16.90;99.90;;;;;;5032163;28;20041;-80
2023/06/28 02:39:42;;;;;;;6.33;2.50;;;17.00;99.90;;;;;;5032787;28;20041;-80
2023/06/28 02:42:08;;;;;;;7.37;2.80;;;16.90;99.90;;;;;;5031644;28;20052;-81
2023/06/28 02:44:37;;;;;;;6.17;2.77;;;16.90;99.90;;;;;;5015062;28;20041;-82
2023/06/28 02:47:03;;;;;;;6.33;2.10;;;16.90;99.90;;;;;;5015122;28;20092;-81
2023/06/28 02:49:28;;;;;;;8.43;2.50;;;16.80;99.90;;;;;;5031452;28;20540;-81
2023/06/28 02:51:54;;;;;;;6.07;2.17;;;16.90;99.90;;;;;;5032329;28;20050;-81
2023/06/28 02:54:20;;;;;;;6.90;2.10;;;16.90;99.90;;;;;;5032070;28;20091;-81
2023/06/28 02:56:45;;;;;;;5.97;2.13;;;16.80;99.90;;;;;;5015379;28;20038;-81
2023/06/28 02:59:11;;;;;;;7.97;2.37;;;16.80;99.90;;;;;;5031771;28;20481;-81
2023/06/28 03:01:37;;;;;;;5.93;2.60;;;16.80;99.90;;;;;;5031413;28;20072;-81
2023/06/28 03:04:03;;;;;;;6.30;2.27;;;16.80;99.90;;;;;;5032538;28;20046;-80
2023/06/28 03:06:29;;;;;;;6.10;2.10;;;16.80;99.90;;;;;;5032830;28;20481;-80
2023/06/28 03:08:55;;;;;;;6.87;2.23;;;16.80;99.90;;;;;;5032463;28;20061;-80
2023/06/28 03:11:20;;;;;;;6.53;2.10;;;16.80;99.90;;;;;;5031510;28;20076;-79
2023/06/28 03:13:46;;;;;;;5.30;2.07;;;16.70;99.90;;;;;;5032589;28;20056;-79
2023/06/28 03:16:12;;;;;;;5.80;1.90;;;16.70;99.90;;;;;;5031267;28;20129;-80
2023/06/28 03:18:38;;;;;;;6.80;1.90;;;16.80;99.90;;;;;;5030687;28;20375;-80
2023/06/28 03:21:03;;;;;;;4.77;1.90;;;16.80;99.90;;;;;;5014701;28;20049;-80
2023/06/28 03:23:29;;;;;;;4.83;2.30;;;16.70;99.90;;;;;;5031205;28;20045;-79
2023/06/28 03:25:55;;;;;;;4.43;1.80;;;16.80;99.90;;;;;;5031046;28;20175;-80
2023/06/28 03:28:20;;;;;;;3.60;1.77;;;16.80;99.90;;;;;;5031450;28;20055;-79
2023/06/28 03:30:46;;;;;;;5.80;2.23;;;16.80;99.90;;;;;;5015010;28;20049;-80
2023/06/28 03:33:12;;;;;;;6.50;2.03;;;16.80;99.90;;;;;;5031098;28;20440;-80
2023/06/28 03:35:37;;;;;;;6.40;1.90;;;16.70;99.90;;;;;;5031277;28;20128;-81
2023/06/28 03:38:03;;;;;;;4.93;1.90;;;16.70;99.90;;;;;;5032114;28;20085;-81
2023/06/28 03:40:29;;;;;;;4.73;1.97;;;16.80;99.90;;;;;;5031130;28;20119;-81
2023/06/28 03:42:55;;;;;;;5.57;2.20;;;16.70;99.90;;;;;;5014247;28;20049;-81
2023/06/28 03:45:21;;;;;;;5.73;1.70;;;16.70;99.90;;;;;;5030825;28;20057;-81
2023/06/28 03:47:51;;;;;;;4.67;1.90;;;16.70;99.90;;;;;;5031893;28;20045;-82
2023/06/28 03:50:17;;;;;;;4.70;1.93;;;16.70;99.90;;;;;;5015082;28;20052;-82
2023/06/28 03:52:43;;;;;;;5.50;2.27;;;16.70;99.90;;;;;;5014688;28;20046;-82
2023/06/28 03:55:08;;;;;;;4.73;1.90;;;16.70;99.90;;;;;;5030525;28;20049;-83
2023/06/28 03:57:34;;;;;;;8.20;2.13;;;16.60;99.90;;;;;;5030667;28;20052;-83
2023/06/28 04:00:00;;;;;;;6.03;2.27;;;16.60;99.90;;;;;;5014046;28;20140;-83
2023/06/28 04:02:26;;;;;;;7.90;2.00;;;16.60;99.90;;;;;;5031845;28;20041;-83
2023/06/28 04:04:52;;;;;;;7.97;3.13;;;16.60;99.90;;;;;;5031119;28;20183;-83
2023/06/28 04:07:24;;;;;;;5.63;2.50;;;16.60;99.90;;;;;;5016066;28;20045;-83
2023/06/28 04:09:50;;;;;;;6.67;2.23;;;16.60;99.90;;;;;;5018603;28;20053;-84
2023/06/28 04:12:16;;;;;;;6.60;3.20;;;16.70;99.90;;;;;;5034090;28;20056;-83
2023/06/28 04:14:42;;;;;;;9.03;3.40;;;16.60;99.90;;;;;;5034287;28;20046;-84
2023/06/28 04:17:07;;;;;;;6.07;3.13;;;16.70;99.90;;;;;;5033035;28;20073;-83
2023/06/28 04:19:33;;;;;;;10.30;3.40;;;16.70;99.90;;;;;;5035792;28;20496;-84
2023/06/28 04:21:59;;;;;;;6.90;3.80;;;16.70;99.90;;;;;;5018089;28;20045;-83
2023/06/28 04:24:25;;;;;;;7.30;3.73;;;16.70;99.90;;;;;;5017731;28;20556;-83
2023/06/28 04:26:51;;;;;;;8.80;3.90;;;16.70;99.90;;;;;;5034470;28;20128;-84
2023/06/28 04:29:16;;;;;;;8.60;3.27;;;16.70;99.90;;;;;;5035046;28;20846;-84
2023/06/28 04:31:42;;;;;;;8.70;3.50;;;16.70;99.90;;;;;;5034221;28;20041;-84
2023/06/28 04:34:08;;;;;;;9.17;2.57;;;16.70;99.90;;;;;;5033856;28;20044;-84
2023/06/28 04:36:33;;;;;;;5.47;3.10;;;16.70;99.90;;;;;;5034205;28;20045;-84
2023/06/28 04:39:03;;;;;;;6.87;2.60;;;16.70;99.90;;;;;;5033561;28;20076;-82
2023/06/28 04:41:29;;;;;;;7.87;2.63;;;16.70;99.90;;;;;;5018211;28;20406;-83
2023/06/28 04:43:56;;;;;;;7.17;2.30;;;16.70;99.90;;;;;;5017371;28;20041;-83
2023/06/28 04:46:29;;;;;;;6.43;2.80;;;16.70;99.90;;;;;;5033605;28;20118;-83
2023/06/28 04:48:56;;;;;;;5.50;2.67;;;16.80;99.90;;;;;;5018110;28;20042;-83
2023/06/28 04:51:22;;;;;;;8.50;3.20;;;16.80;99.90;;;;;;5033791;28;20106;-82
2023/06/28 04:53:49;;;;;;;6.53;2.63;;;16.80;99.90;;;;;;5033701;28;20572;-81
2023/06/28 04:56:15;;;;;;;8.20;2.80;;;16.90;99.90;;;;;;5033278;28;20489;-78
2023/06/28 04:58:41;;;;;;;6.37;2.53;;;16.80;99.90;;;;;;5034634;28;20057;-78
2023/06/28 05:01:10;;;;;;;7.40;2.43;;;16.90;99.90;;;;;;5033498;28;20041;-78
2023/06/28 05:03:40;;;;;;;7.50;3.50;;;16.90;99.90;;;;;;5033712;28;20037;-78
2023/06/28 05:06:06;;;;;;;8.30;3.00;;;16.90;99.90;;;;;;5034592;28;20067;-79
2023/06/28 05:08:32;;;;;;;8.23;3.30;;;16.90;99.90;;;;;;5033285;28;20442;-81
2023/06/28 05:10:59;;;;;;;6.70;3.57;;;16.90;99.90;;;;;;5017020;28;20544;-81
2023/06/28 05:13:25;;;;;;;5.87;3.10;;;16.80;99.90;;;;;;5032995;28;20563;-81
2023/06/28 05:15:51;;;;;;;8.23;3.07;;;16.80;99.90;;;;;;5034795;28;20093;-81
2023/06/28 05:18:18;;;;;;;7.37;3.80;;;16.70;99.90;;;;;;5032132;28;20085;-81
2023/06/28 05:20:43;;;;;;;6.80;3.93;;;16.70;99.90;;;;;;5033558;28;20056;-81
2023/06/28 05:23:14;;;;;;;10.10;4.37;;;16.70;99.90;;;;;;5034181;28;20049;-82
2023/06/28 05:25:41;;;;;;;8.50;3.73;;;16.80;99.90;;;;;;5033243;28;20520;-81
2023/06/28 05:28:09;;;;;;;7.73;3.80;;;16.70;99.90;;;;;;5032892;28;20132;-82
2023/06/28 05:30:35;;;;;;;9.60;4.23;;;16.70;99.90;;;;;;5033213;28;20091;-83
2023/06/28 05:33:02;;;;;;;8.97;3.73;;;16.70;99.90;;;;;;5034226;28;20137;-83
2023/06/28 05:35:35;;;;;;;9.30;4.23;;;16.70;99.90;;;;;;5032787;28;20512;-84
2023/06/28 05:38:04;;;;;;;7.53;4.13;;;16.80;99.90;;;;;;5016551;28;20050;-84
2023/06/28 05:40:31;;;;;;;9.03;3.80;;;16.80;99.90;;;;;;5000906;28;20382;-84
2023/06/28 05:42:58;;;;;;;7.13;4.20;;;16.80;99.90;;;;;;5033068;28;20045;-84
2023/06/28 05:45:25;;;;;;;9.77;4.43;;;16.80;99.90;;;;;;5016233;28;20099;-83
2023/06/28 05:47:51;;;;;;;11.87;4.37;;;16.80;99.90;;;;;;5016509;28;20136;-83
2023/06/28 05:50:17;;;;;;;7.20;4.23;;;16.90;99.90;;;;;;5016302;28;20084;-83
2023/06/28 05:52:46;;;;;;;10.57;5.37;;;16.90;99.90;;;;;;5032500;28;20107;-82
2023/06/28 05:55:12;;;;;;;9.60;4.50;;;16.90;99.90;;;;;;5033552;28;20107;-83
2023/06/28 05:57:39;;;;;;;10.50;4.97;;;16.90;99.90;;;;;;5016237;28;20045;-84
2023/06/28 06:00:05;;;;;;;10.63;5.53;;;16.90;99.90;;;;;;5032579;28;20042;-83
2023/06/28 06:02:31;;;;;;;10.87;4.77;;;16.90;99.90;;;;;;5016361;28;20152;-83
2023/06/28 06:05:02;;;;;;;10.77;4.70;;;16.90;99.90;;;;;;5016425;28;20493;-83
2023/06/28 06:07:28;;;;;;;11.07;5.07;;;16.80;99.90;;;;;;5033097;28;20086;-84
2023/06/28 06:09:55;;;;;;;11.60;4.67;;;16.80;99.90;;;;;;5000284;28;20079;-84
2023/06/28 06:12:21;;;;;;;10.10;4.63;;;16.70;99.90;;;;;;5032417;28;20128;-84
2023/06/28 06:14:50;;;;;;;12.03;4.90;;;16.70;99.90;;;;;;5033583;28;20128;-84
2023/06/28 06:17:19;;;;;;;9.60;4.90;;;16.70;99.90;;;;;;5032482;28;20095;-83
2023/06/28 06:19:45;;;;;;;11.00;5.57;;;16.60;99.90;;;;;;5015818;28;20077;-83
2023/06/28 06:22:11;;;;;;;11.67;5.40;;;16.60;99.90;;;;;;5031633;28;20089;-81
2023/06/28 06:24:37;;;;;;;10.23;5.00;;;16.60;99.90;;;;;;5033589;28;20049;-81
2023/06/28 06:27:04;;;;;;;9.97;4.53;;;16.60;99.90;;;;;;5032579;28;20049;-81
2023/06/28 06:29:30;;;;;;;13.90;6.17;;;16.60;99.90;;;;;;5030823;28;20060;-82
2023/06/28 06:31:55;;;;;;;11.83;5.60;;;16.60;99.90;;;;;;5033546;28;20099;-82
2023/06/28 06:34:21;;;;;;;11.43;5.73;;;16.70;99.90;;;;;;5032920;28;20478;-83
2023/06/28 06:36:47;;;;;;;11.00;5.20;;;16.70;99.90;;;;;;5033190;28;20095;-84
2023/06/28 06:39:13;;;;;;;11.47;5.07;;;16.70;99.90;;;;;;5015855;28;20138;-84
2023/06/28 06:41:38;;;;;;;9.50;4.70;;;16.80;99.90;;;;;;5033293;28;20401;-85
2023/06/28 06:44:04;;;;;;;11.23;5.27;;;16.90;99.90;;;;;;5033320;28;20045;-86
2023/06/28 06:46:30;;;;;;;11.33;4.80;;;16.90;99.90;;;;;;5015261;28;20136;-84
2023/06/28 06:48:55;;;;;;;8.87;5.33;;;16.90;99.90;;;;;;5015739;28;20053;-86
2023/06/28 06:51:21;;;;;;;8.30;4.40;;;16.80;99.90;;;;;;5031583;28;20056;-86
2023/06/28 06:53:47;;;;;;;12.93;4.43;;;16.90;99.90;;;;;;5032000;28;20239;-86
2023/06/28 06:56:19;;;;;;;10.07;5.97;;;16.80;99.90;;;;;;5015121;28;20108;-84
2023/06/28 06:58:44;;;;;;;12.57;5.50;;;16.80;99.90;;;;;;5016194;28;20041;-83
2023/06/28 07:01:10;;;;;;;11.63;5.43;;;16.90;99.90;;;;;;5015547;28;20637;-83
2023/06/28 07:03:36;;;;;;;10.43;4.93;;;16.90;99.90;;;;;;5014704;28;20072;-86
2023/06/28 07:06:02;;;;;;;10.13;5.27;;;16.90;99.90;;;;;;4998868;28;20038;-87
2023/06/28 07:08:28;;;;;;;9.23;4.93;;;16.90;99.90;;;;;;5031071;28;20061;-87
2023/06/28 07:10:53;;;;;;;11.10;4.83;;;16.90;99.90;;;;;;5031984;28;20052;-85
2023/06/28 07:13:19;;;;;;;9.40;5.27;;;17.00;99.90;;;;;;5014966;28;20042;-87
2023/06/28 07:15:45;;;;;;;9.53;5.30;;;17.00;99.90;;;;;;5015193;28;20151;-87
2023/06/28 07:18:10;;;;;;;10.60;4.90;;;17.00;99.90;;;;;;5015254;28;20072;-86
2023/06/28 07:20:36;;;;;;;9.73;5.17;;;17.10;99.90;;;;;;5014648;28;20494;-87
2023/06/28 07:23:02;;;;;;;9.90;5.63;;;17.10;99.90;;;;;;5015295;28;20477;-85
2023/06/28 07:25:28;;;;;;;8.83;4.50;;;17.10;99.90;;;;;;4998621;28;20052;-85
2023/06/28 07:27:53;;;;;;;11.67;5.17;;;17.10;99.90;;;;;;5015322;28;20520;-85
2023/06/28 07:30:23;;;;;;;9.83;5.10;;;17.10;99.90;;;;;;5015067;28;20050;-85
2023/06/28 07:32:49;;;;;;;11.57;5.60;;;17.10;99.90;;;;;;5015088;28;20100;-85
2023/06/28 07:35:15;;;;;;;8.97;5.00;;;17.10;99.90;;;;;;5014962;28;20136;-85
2023/06/28 07:37:43;;;;;;;9.43;4.87;;;17.00;99.90;;;;;;4998371;28;20490;-85
2023/06/28 07:40:09;;;;;;;11.40;5.57;;;17.10;99.90;;;;;;5031328;28;20053;-84
2023/06/28 07:42:36;;;;;;;10.47;5.30;;;17.00;99.90;;;;;;5017268;28;20444;-82
2023/06/28 07:45:03;;;;;;;10.83;5.80;;;17.00;99.90;;;;;;5019114;28;20084;-84
2023/06/28 07:47:29;;;;;;;13.17;6.30;;;17.00;99.90;;;;;;5034827;28;20444;-84
2023/06/28 07:49:55;;;;;;;11.27;5.37;;;17.10;99.90;;;;;;5018676;28;20050;-83
2023/06/28 07:52:20;;;;;;;12.40;6.07;;;17.10;99.90;;;;;;5018152;28;20049;-84
2023/06/28 07:54:46;;;;;;;9.73;6.40;;;17.10;99.90;;;;;;5018560;28;20049;-83
2023/06/28 07:57:12;;;;;;;11.93;5.57;;;17.10;99.90;;;;;;5036033;28;20130;-83
2023/06/28 07:59:37;;;;;;;11.13;5.73;;;17.10;99.90;;;;;;5018011;28;20485;-83
2023/06/28 08:02:03;;;;;;;9.40;5.47;;;17.10;99.90;;;;;;5018314;28;20049;-83
2023/06/28 08:04:29;;;;;;;10.40;5.90;;;17.10;99.90;;;;;;5034319;28;20048;-84
2023/06/28 08:06:55;;;;;;;10.57;5.80;;;17.10;99.90;;;;;;5034829;28;20045;-83
2023/06/28 08:09:20;;;;;;;10.00;5.30;;;17.10;99.90;;;;;;5017932;28;20057;-86
2023/06/28 08:11:46;;;;;;;9.03;5.33;;;17.10;99.90;;;;;;5002123;28;20486;-84
2023/06/28 08:14:12;;;;;;;10.30;5.90;;;17.10;99.90;;;;;;5034691;28;20548;-83
2023/06/28 08:16:38;;;;;;;10.13;6.00;;;17.10;99.90;;;;;;5017885;28;20049;-83
2023/06/28 08:19:03;;;;;;;11.53;6.57;;;17.10;99.90;;;;;;5001917;28;20045;-84
2023/06/28 08:21:29;;;;;;;9.53;6.30;;;17.00;99.90;;;;;;5033782;28;20428;-84
2023/06/28 08:23:55;;;;;;;10.00;5.70;;;17.00;99.90;;;;;;5018049;28;20042;-84
2023/06/28 08:26:20;;;;;;;12.23;7.00;;;17.00;99.90;;;;;;5017847;28;20049;-83
2023/06/28 08:28:46;;;;;;;11.73;6.00;;;17.00;99.90;;;;;;5033941;28;20489;-83
2023/06/28 08:31:13;;;;;;;14.37;7.13;;;17.00;99.90;;;;;;5034092;28;20085;-82
2023/06/28 08:33:39;;;;;;;10.87;6.40;;;17.00;99.90;;;;;;5017181;28;20042;-82
2023/06/28 08:36:05;;;;;;;13.23;7.63;;;17.10;99.90;;;;;;5034454;28;20045;-85
2023/06/28 08:38:30;;;;;;;11.80;7.33;;;17.00;99.90;;;;;;5034823;28;20482;-79
2023/06/28 08:40:56;;;;;;;9.80;7.10;;;17.10;99.90;;;;;;5030937;28;20041;-80
2023/06/28 08:43:23;;;;;;;13.13;7.43;;;17.10;99.90;;;;;;5034656;28;20033;-80
2023/06/28 08:45:49;;;;;;;12.57;7.73;;;17.10;99.90;;;;;;5041527;28;20045;-73
2023/06/28 08:48:16;;;;;;;16.73;7.83;;;17.10;99.90;;;;;;5034293;28;20049;-80
2023/06/28 08:50:44;;;;;;;11.97;8.30;;;17.10;99.90;;;;;;5025008;28;20497;-78
2023/06/28 08:53:19;;;;;;;12.57;8.47;;;17.10;99.90;;;;;;5033006;28;20106;-78
2023/06/28 08:55:45;;;;;;;;;;;17.20;99.90;;;;;;5034265;28;20053;-80
2023/06/28 08:58:12;;;;;;;12.57;7.90;;;17.20;99.90;;;;;;5034760;28;19931;-79
2023/06/28 09:00:41;;;;;;;14.53;7.03;;;17.20;99.90;;;;;;5033568;28;20041;-80
2023/06/28 09:03:09;;;;;;;13.10;8.17;;;17.30;99.90;;;;;;5034940;28;20050;-82
2023/06/28 09:05:36;;;;;;;11.43;8.40;;;17.30;99.90;;;;;;5033166;28;20053;-80
2023/06/28 09:08:02;;;;;;;13.47;8.67;;;17.40;99.90;;;;;;5031142;28;20104;-82
2023/06/28 09:10:29;;;;;;;12.70;8.27;;;17.30;99.90;;;;;;5008380;28;20049;-83
2023/06/28 09:12:55;;;;;;;11.83;8.80;;;17.40;99.90;;;;;;5034066;28;20037;-73
2023/06/28 09:15:22;;;;;;;12.10;8.97;;;17.40;99.90;;;;;;5031249;28;20158;-75
2023/06/28 09:17:48;;;;;;;11.87;8.93;;;17.50;99.90;;;;;;5033954;28;20344;-76
2023/06/28 09:20:18;;;;;;;12.77;8.80;;;17.50;99.90;;;;;;5040704;28;20049;-73
2023/06/28 09:22:58;;;;;;;11.20;9.03;;;17.50;99.90;;;;;;5031414;28;20112;-74
2023/06/28 09:25:30;;;;;;;11.97;8.77;;;17.60;99.90;;;;;;5030592;28;20049;-72
2023/06/28 09:27:56;;;;;;;12.20;8.13;;;17.60;99.90;;;;;;5033607;28;20049;-73
2023/06/28 09:30:22;;;;;;;10.73;8.03;;;17.60;99.90;;;;;;5033734;28;20429;-73
2023/06/28 09:32:51;;;;;;;10.83;8.53;;;17.70;99.90;;;;;;5032593;28;20057;-73
2023/06/28 09:35:23;;;;;;;10.43;8.03;;;17.80;99.90;;;;;;5033644;28;20049;-82
2023/06/28 09:37:53;;;;;;;11.70;8.63;;;17.80;99.90;;;;;;5032334;28;20552;-72
2023/06/28 09:40:19;;;;;;;12.63;9.17;;;17.90;99.90;;;;;;5033734;28;20099;-73
2023/06/28 09:42:46;;;;;;;11.33;8.57;;;17.90;99.90;;;;;;5033813;28;20049;-75
2023/06/28 09:45:30;;;;;;;9.30;8.20;;;17.90;99.90;;;;;;5034022;28;20133;-77
2023/06/28 09:47:57;;;;;;;11.83;8.43;;;17.90;99.90;;;;;;5033599;28;20132;-78
2023/06/28 09:50:42;;;;;;;10.70;8.00;;;17.90;99.90;;;;;;5033741;28;20088;-73
2023/06/28 09:53:16;;;;;;;11.27;8.27;;;17.90;99.90;;;;;;5048870;28;20038;-77
2023/06/28 09:55:43;;;;;;;12.50;9.17;;;18.00;99.90;;;;;;5032756;28;20049;-82
2023/06/28 09:58:18;;;;;;;12.83;8.53;;;18.00;99.90;;;;;;5049573;28;20049;-84
2023/06/28 10:00:46;;;;;;;11.85;9.68;;;18.00;99.90;;;;;;5015941;28;20454;-72
2023/06/28 10:03:15;;;;;;;11.60;9.00;;;18.00;99.90;;;;;;5048717;28;20099;-84
2023/06/28 10:05:42;;;;;;;13.43;8.90;;;18.10;99.90;;;;;;5015356;28;20053;-84
2023/06/28 10:08:10;;;;;;;9.87;8.13;;;18.00;99.90;;;;;;5049001;28;20060;-84
2023/06/28 10:10:38;;;;;;;10.53;7.63;;;18.00;99.90;;;;;;5031898;28;20418;-84
2023/06/28 10:13:06;;;;;;;9.93;8.30;;;18.00;99.90;;;;;;5015926;28;20132;-83
2023/06/28 10:15:51;;;;;;;9.77;7.40;;;18.00;99.90;;;;;;5032252;28;20041;-82
2023/06/28 10:18:17;;;;;;;11.32;8.45;;;18.00;99.90;;;;;;5049006;28;20049;-80
2023/06/28 10:20:43;;;;;;;10.60;8.13;;;18.00;99.90;;;;;;5048827;28;20052;-84
2023/06/28 10:23:12;;;;;;;10.70;8.57;;;18.00;99.90;;;;;;5032206;28;20057;-83
2023/06/28 10:25:43;;;;;;;11.67;8.33;;;18.00;99.90;;;;;;5031913;28;20053;-84
2023/06/28 10:28:09;;;;;;;9.77;8.70;;;17.90;99.90;;;;;;5015541;28;20057;-84
2023/06/28 10:30:35;;;;;;;13.90;9.50;;;17.90;99.90;;;;;;5032334;28;20045;-83
2023/06/28 10:33:04;;;;;;;13.90;9.87;;;17.90;99.90;;;;;;5048641;28;20053;-83
2023/06/28 10:35:30;;;;;;;13.13;9.57;;;17.90;99.90;;;;;;5032213;28;20248;-83
2023/06/28 10:37:57;;;;;;;13.50;10.67;;;17.90;99.90;;;;;;5031782;28;20144;-70
2023/06/28 10:40:24;;;;;;;13.17;10.20;;;17.90;99.90;;;;;;5032930;28;20049;-72
2023/06/28 10:42:50;;;;;;;11.93;10.50;;;17.80;99.90;;;;;;5032516;28;20045;-77
2023/06/28 10:45:16;;;;;;;13.80;11.27;;;17.90;99.90;;;;;;5048646;28;20052;-71
2023/06/28 10:47:54;;;;;;;12.93;11.00;;;17.80;99.90;;;;;;5032863;28;20053;-71
2023/06/28 10:50:21;;;;;;;12.80;10.77;;;17.90;99.90;;;;;;5032321;28;20049;-79
2023/06/28 10:52:57;;;;;;;11.93;9.77;;;17.90;99.90;;;;;;5014585;28;20084;-78
2023/06/28 10:55:31;;;;;;;15.50;11.37;;;17.90;99.90;;;;;;5025720;28;20057;-79
2023/06/28 10:58:27;;;;;;;13.75;10.90;;;17.90;99.90;;;;;;5011871;28;20050;-78
2023/06/28 11:00:53;;;;;;;13.35;10.88;;;17.90;99.90;;;;;;4999064;28;20152;-79
2023/06/28 11:03:19;;;;;;;14.37;12.43;;;17.90;99.90;;;;;;5011891;28;20120;-83
2023/06/28 11:05:44;;;;;;;15.00;11.90;;;17.80;99.90;;;;;;5027961;28;20057;-82
2023/06/28 11:08:12;;;;;;;14.53;11.47;;;17.90;99.90;;;;;;5027611;28;20057;-75
2023/06/28 11:10:40;;;;;;;13.87;12.37;;;17.90;99.90;;;;;;5013202;28;20128;-75
2023/06/28 11:13:13;;;;;;;13.30;11.60;;;17.90;99.90;;;;;;5012636;28;20088;-71
2023/06/28 11:15:46;;;;;;;14.37;12.30;;;17.90;99.90;;;;;;5014402;28;20052;-72
2023/06/28 11:18:19;;;;;;;14.60;12.47;;;17.90;99.90;;;;;;5016792;28;20425;-72
2023/06/28 11:20:56;;;;;;;14.10;12.60;;;18.00;99.90;;;;;;5016698;28;20057;-72
2023/06/28 11:23:29;;;;;;;15.10;12.07;;;18.00;99.90;;;;;;5017264;28;20046;-71
2023/06/28 11:26:00;;;;;;;15.93;13.00;;;18.00;99.90;;;;;;5016678;28;20050;-73
2023/06/28 11:28:34;;;;;;;18.43;14.63;;;18.00;99.90;;;;;;5016684;28;20096;-73
2023/06/28 11:31:21;;;;;;;19.00;14.40;;;18.00;99.90;;;;;;5015439;28;20085;-74
2023/06/28 11:33:47;;;;;;;17.53;14.97;;;18.00;99.90;;;;;;5028508;28;20038;-74
2023/06/28 11:36:14;;;;;;;18.37;14.67;;;18.00;99.90;;;;;;5035957;28;20045;-74
2023/06/28 11:38:46;;;;;;;18.33;16.40;;;18.00;99.90;;;;;;5034546;28;20449;-73
2023/06/28 11:41:15;;;;;;;18.90;16.03;;;18.00;99.90;;;;;;5034687;28;20081;-72
2023/06/28 11:43:45;;;;;;;19.83;17.57;;;18.00;99.90;;;;;;5035759;28;20038;-81
2023/06/28 11:46:19;;;;;;;21.90;17.73;;;18.10;99.90;;;;;;5035817;28;20049;-75
2023/06/28 11:48:46;;;;;;;22.73;16.87;;;18.00;99.90;;;;;;5036302;28;20137;-71
2023/06/28 11:51:12;;;;;;;21.93;17.47;;;18.10;99.90;;;;;;5035991;28;20284;-79
2023/06/28 11:53:38;;;;;;;25.20;18.30;;;18.10;99.90;;;;;;5034148;28;20050;-79
2023/06/28 11:56:04;;;;;;;22.10;18.63;;;18.10;99.90;;;;;;5035864;28;20066;-79
2023/06/28 11:58:36;;;;;;;21.17;18.87;;;18.20;99.90;;;;;;5036037;28;20555;-78
2023/06/28 12:01:05;;;;;;;23.53;19.63;;;18.20;99.90;;;;;;5034844;28;20509;-79
2023/06/28 12:03:35;;;;;;;25.43;20.17;;;18.20;99.90;;;;;;5035915;28;20132;-79
2023/06/28 12:06:03;;;;;;;22.77;20.33;;;18.20;99.90;;;;;;5035587;28;20053;-79
2023/06/28 12:08:39;;;;;;;21.87;18.37;;;18.30;99.90;;;;;;5034455;28;20053;-79
2023/06/28 12:11:09;;;;;;;22.10;19.43;;;18.30;99.90;;;;;;5034512;28;20076;-80
2023/06/28 12:13:35;;;;;;;22.20;19.77;;;18.30;99.90;;;;;;5035945;28;20041;-80
2023/06/28 12:16:18;;;;;;;23.07;19.97;;;18.30;99.90;;;;;;5034273;28;20111;-80
2023/06/28 12:18:58;;;;;;;24.23;21.37;;;18.40;99.90;;;;;;5034525;28;20049;-80
2023/06/28 12:21:26;;;;;;;27.53;22.20;;;18.50;99.90;;;;;;5035871;28;20049;-81
2023/06/28 12:23:52;;;;;;;27.90;21.60;;;18.60;99.90;;;;;;5034242;28;20123;-80
2023/06/28 12:26:20;;;;;;;27.47;21.07;;;18.60;99.90;;;;;;5034521;28;20179;-80
2023/06/28 12:28:50;;;;;;;23.70;20.73;;;18.60;99.90;;;;;;5034848;28;20064;-80
2023/06/28 12:31:16;;;;;;;27.50;22.00;;;18.60;99.90;;;;;;5001477;28;20144;-75
2023/06/28 12:33:43;;;;;;;27.87;23.33;;;18.70;99.90;;;;;;5034167;28;20087;-78
2023/06/28 12:36:15;;;;;;;27.93;23.17;;;18.70;99.90;;;;;;5017594;28;20061;-81
2023/06/28 12:38:45;;;;;;;25.77;21.83;;;18.70;99.90;;;;;;5035430;28;20045;-82
2023/06/28 12:41:14;;;;;;;30.23;23.67;;;18.70;99.90;;;;;;5033683;28;20912;-83